createdAt,value
2019-03-30T00:02:16.749Z,100811.42
2019-03-30T00:04:44.643Z,100809.86
2019-03-30T00:07:14.118Z,100798.91
2019-03-30T00:09:43.228Z,100798.91
2019-03-30T00:12:11.071Z,100799.98
2019-03-30T00:14:38.651Z,100799.98
2019-03-30T00:17:06.218Z,100799.95
2019-03-30T00:19:35.066Z,100799.15
2019-03-30T00:22:02.959Z,100800.09
2019-03-30T00:24:30.571Z,100800.09
2019-03-30T00:27:03.166Z,100804.61
2019-03-30T00:29:34.684Z,100803.05
2019-03-30T00:32:02.289Z,100806.24
2019-03-30T00:34:38.477Z,100806.24
2019-03-30T00:37:06.042Z,100801.50
2019-03-30T00:39:33.634Z,100803.45
2019-03-30T00:42:01.543Z,100800.27
2019-03-30T00:44:32.161Z,100800.27
2019-03-30T00:46:59.619Z,100798.53
2019-03-30T00:49:27.484Z,100786.23
2019-03-30T00:51:55.061Z,100786.23
2019-03-30T00:54:22.651Z,100781.11
2019-03-30T00:56:50.514Z,100781.11
2019-03-30T00:59:18.139Z,100776.44
2019-03-30T01:01:48.604Z,100771.07
2019-03-30T01:04:16.225Z,100771.07
2019-03-30T01:06:44.082Z,100772.78
2019-03-30T01:09:11.795Z,100773.54
2019-03-30T01:11:39.428Z,100776.97
2019-03-30T01:14:07.286Z,100776.97
2019-03-30T01:16:34.838Z,100766.69
2019-03-30T01:19:02.398Z,100773.47
2019-03-30T01:21:30.262Z,100759.67
2019-03-30T01:23:58.021Z,100759.67
2019-03-30T01:26:25.599Z,100755.48
2019-03-30T01:28:53.065Z,100762.64
2019-03-30T01:31:20.613Z,100757.74
2019-03-30T01:33:49.379Z,100749.80
2019-03-30T01:36:17.003Z,100750.64
2019-03-30T01:38:44.589Z,100750.26
2019-03-30T01:41:12.217Z,100750.26
2019-03-30T01:43:40.006Z,100739.45
2019-03-30T01:46:07.624Z,100745.05
2019-03-30T01:48:35.613Z,100737.19
2019-03-30T01:51:03.439Z,100735.96
2019-03-30T01:53:30.962Z,100735.96
2019-03-30T01:55:58.506Z,100741.39
2019-03-30T01:58:26.323Z,100739.84
2019-03-30T02:00:53.832Z,100735.08
2019-03-30T02:03:21.344Z,100734.93
2019-03-30T02:05:48.902Z,100734.93
2019-03-30T02:08:17.185Z,100734.67
2019-03-30T02:10:44.737Z,100733.58
2019-03-30T02:13:12.318Z,100728.91
2019-03-30T02:15:39.871Z,100729.06
2019-03-30T02:18:10.737Z,100729.06
2019-03-30T02:20:38.300Z,100725.49
2019-03-30T02:23:05.867Z,100725.49
2019-03-30T02:25:33.491Z,100725.88
2019-03-30T02:28:06.928Z,100723.23
2019-03-30T02:30:33.597Z,100720.66
2019-03-30T02:33:01.179Z,100716.69
2019-03-30T02:35:28.788Z,100717.49
2019-03-30T02:37:56.586Z,100714.75
2019-03-30T02:40:24.207Z,100715.14
2019-03-30T02:42:51.762Z,100708.53
2019-03-30T02:45:19.376Z,100708.53
2019-03-30T02:47:47.187Z,100701.15
2019-03-30T02:50:14.702Z,100701.15
2019-03-30T02:52:42.171Z,100692.99
2019-03-30T02:55:12.557Z,100698.28
2019-03-30T02:57:39.227Z,100698.28
2019-03-30T03:00:09.240Z,100694.23
2019-03-30T03:02:36.839Z,100694.45
2019-03-30T03:05:04.477Z,100688.91
2019-03-30T03:07:32.297Z,100688.91
2019-03-30T03:09:59.912Z,100689.97
2019-03-30T03:12:27.453Z,100689.97
2019-03-30T03:14:55.047Z,100679.76
2019-03-30T03:17:22.877Z,100679.76
2019-03-30T03:19:50.514Z,100675.25
2019-03-30T03:22:18.036Z,100675.25
2019-03-30T03:24:45.643Z,100671.02
2019-03-30T03:27:13.444Z,100671.02
2019-03-30T03:29:43.747Z,100669.38
2019-03-30T03:32:10.218Z,100669.38
2019-03-30T03:34:38.004Z,100666.35
2019-03-30T03:37:05.474Z,100670.98
2019-03-30T03:39:33.072Z,100670.98
2019-03-30T03:42:00.595Z,100665.86
2019-03-30T03:44:28.467Z,100665.86
2019-03-30T03:46:56.025Z,100652.82
2019-03-30T03:49:23.611Z,100652.44
2019-03-30T03:51:51.164Z,100660.80
2019-03-30T03:54:19.111Z,100663.00
2019-03-30T03:56:46.673Z,100659.88
2019-03-30T03:59:14.469Z,100654.98
2019-03-30T04:01:41.989Z,100657.30
2019-03-30T04:04:09.484Z,100652.62
2019-03-30T04:06:37.054Z,100648.37
2019-03-30T04:09:04.880Z,100648.11
2019-03-30T04:11:32.408Z,100642.89
2019-03-30T04:14:00.003Z,100646.14
2019-03-30T04:16:27.550Z,100646.14
2019-03-30T04:18:55.412Z,100639.43
2019-03-30T04:21:22.940Z,100639.43
2019-03-30T04:23:54.090Z,100634.86
2019-03-30T04:26:19.617Z,100635.40
2019-03-30T04:28:47.506Z,100633.27
2019-03-30T04:31:15.065Z,100633.27
2019-03-30T04:33:42.657Z,100628.14
2019-03-30T04:36:10.169Z,100624.31
2019-03-30T04:38:37.969Z,100631.00
2019-03-30T04:41:05.520Z,100632.16
2019-03-30T04:43:32.995Z,100632.16
2019-03-30T04:46:00.871Z,100622.66
2019-03-30T04:48:29.618Z,100618.84
2019-03-30T04:50:57.300Z,100618.84
2019-03-30T04:53:25.160Z,100620.77
2019-03-30T04:55:54.941Z,100616.09
2019-03-30T04:58:22.532Z,100614.78
2019-03-30T05:00:50.066Z,100613.58
2019-03-30T05:03:17.847Z,100613.58
2019-03-30T05:05:45.289Z,100609.23
2019-03-30T05:08:13.218Z,100605.81
2019-03-30T05:10:41.078Z,100605.81
2019-03-30T05:13:08.611Z,100601.47
2019-03-30T05:15:36.143Z,100607.14
2019-03-30T05:18:03.758Z,100612.02
2019-03-30T05:20:31.575Z,100612.02
2019-03-30T05:22:59.168Z,100604.95
2019-03-30T05:25:27.099Z,100612.86
2019-03-30T05:27:54.640Z,100612.86
2019-03-30T05:30:22.459Z,100608.45
2019-03-30T05:33:04.600Z,100611.88
2019-03-30T05:35:19.289Z,100605.66
2019-03-30T05:37:47.095Z,100605.66
2019-03-30T05:40:14.691Z,100605.54
2019-03-30T05:42:42.252Z,100605.39
2019-03-30T05:45:12.590Z,100598.96
2019-03-30T05:47:41.869Z,100593.46
2019-03-30T05:50:12.680Z,100597.14
2019-03-30T05:52:40.214Z,100590.70
2019-03-30T05:55:07.662Z,100590.70
2019-03-30T05:57:35.514Z,100593.65
2019-03-30T06:00:03.043Z,100593.65
2019-03-30T06:02:30.565Z,100593.75
2019-03-30T06:04:58.706Z,100591.52
2019-03-30T06:07:26.448Z,100591.52
2019-03-30T06:09:53.911Z,100591.62
2019-03-30T06:12:21.653Z,100587.19
2019-03-30T06:14:49.582Z,100591.20
2019-03-30T06:17:17.186Z,100588.33
2019-03-30T06:19:44.742Z,100588.33
2019-03-30T06:22:12.572Z,100587.06
2019-03-30T06:24:40.144Z,100587.06
2019-03-30T06:27:07.668Z,100588.59
2019-03-30T06:29:35.508Z,100593.40
2019-03-30T06:32:03.065Z,100593.40
2019-03-30T06:34:30.542Z,100588.85
2019-03-30T06:36:58.359Z,100588.85
2019-03-30T06:39:25.955Z,100592.70
2019-03-30T06:41:53.573Z,100579.50
2019-03-30T06:44:21.403Z,100579.50
2019-03-30T06:46:48.873Z,100580.20
2019-03-30T06:49:16.466Z,100583.51
2019-03-30T06:51:44.275Z,100571.30
2019-03-30T06:54:16.917Z,100577.73
2019-03-30T06:56:53.727Z,100579.20
2019-03-30T06:59:21.256Z,100566.13
2019-03-30T07:01:48.807Z,100570.61
2019-03-30T07:04:16.326Z,100570.61
2019-03-30T07:06:46.758Z,100567.98
2019-03-30T07:09:14.322Z,100562.69
2019-03-30T07:11:41.847Z,100562.69
2019-03-30T07:14:09.695Z,100560.13
2019-03-30T07:16:37.169Z,100560.13
2019-03-30T07:19:05.106Z,100552.12
2019-03-30T07:21:32.913Z,100548.29
2019-03-30T07:24:00.816Z,100542.36
2019-03-30T07:26:28.376Z,100542.36
2019-03-30T07:28:56.179Z,100540.98
2019-03-30T07:31:23.704Z,100543.86
2019-03-30T07:33:51.204Z,100543.86
2019-03-30T07:36:22.574Z,100539.70
2019-03-30T07:38:50.195Z,100532.79
2019-03-30T07:41:20.506Z,100536.08
2019-03-30T07:43:48.321Z,100526.52
2019-03-30T07:46:15.841Z,100526.52
2019-03-30T07:48:43.410Z,100530.30
2019-03-30T07:51:11.227Z,100536.72
2019-03-30T07:53:44.777Z,100536.72
2019-03-30T07:56:09.046Z,100533.56
2019-03-30T07:58:36.934Z,100536.95
2019-03-30T08:01:04.409Z,100536.95
2019-03-30T08:03:32.019Z,100533.61
2019-03-30T08:06:10.068Z,100532.30
2019-03-30T08:08:32.569Z,100532.30
2019-03-30T08:11:05.132Z,100526.50
2019-03-30T08:13:32.734Z,100526.50
2019-03-30T08:16:00.616Z,100522.94
2019-03-30T08:18:28.703Z,100523.36
2019-03-30T08:20:56.155Z,100519.83
2019-03-30T08:23:23.683Z,100517.52
2019-03-30T08:25:54.177Z,100517.52
2019-03-30T08:28:21.723Z,100517.88
2019-03-30T08:30:49.330Z,100515.86
2019-03-30T08:33:16.868Z,100516.84
2019-03-30T08:35:44.365Z,100518.27
2019-03-30T08:38:12.122Z,100518.27
2019-03-30T08:40:39.703Z,100520.55
2019-03-30T08:43:07.158Z,100511.23
2019-03-30T08:45:36.010Z,100513.73
2019-03-30T08:48:03.547Z,100513.73
2019-03-30T08:50:32.185Z,100515.91
2019-03-30T08:53:00.045Z,100503.03
2019-03-30T08:55:27.596Z,100504.49
2019-03-30T08:57:55.135Z,100501.45
2019-03-30T09:00:23.030Z,100500.82
2019-03-30T09:02:50.943Z,100489.05
2019-03-30T09:05:18.513Z,100486.77
2019-03-30T09:07:46.272Z,100486.77
2019-03-30T09:10:13.822Z,100475.02
2019-03-30T09:12:41.385Z,100475.02
2019-03-30T09:15:11.840Z,100477.03
2019-03-30T09:17:40.522Z,100470.81
2019-03-30T09:20:08.045Z,100470.94
2019-03-30T09:22:36.338Z,100474.70
2019-03-30T09:25:03.945Z,100474.70
2019-03-30T09:27:31.432Z,100468.88
2019-03-30T09:30:09.037Z,100464.20
2019-03-30T09:32:34.106Z,100461.69
2019-03-30T09:35:03.419Z,100457.64
2019-03-30T09:37:31.184Z,100454.27
2019-03-30T09:39:58.709Z,100454.11
2019-03-30T09:42:26.220Z,100442.05
2019-03-30T09:44:53.994Z,100443.83
2019-03-30T09:47:21.497Z,100448.61
2019-03-30T09:49:49.065Z,100448.61
2019-03-30T09:52:16.926Z,100435.70
2019-03-30T09:54:44.523Z,100437.77
2019-03-30T09:57:13.078Z,100431.58
2019-03-30T09:59:40.923Z,100431.58
2019-03-30T10:02:08.406Z,100430.23
2019-03-30T10:04:36.498Z,100421.66
2019-03-30T10:07:07.344Z,100416.78
2019-03-30T10:09:35.252Z,100413.94
2019-03-30T10:12:02.728Z,100425.28
2019-03-30T10:14:31.548Z,100421.09
2019-03-30T10:16:59.430Z,100414.13
2019-03-30T10:19:29.980Z,100414.88
2019-03-30T10:21:57.805Z,100416.56
2019-03-30T10:24:38.084Z,100418.23
2019-03-30T10:26:56.736Z,100405.31
2019-03-30T10:29:24.608Z,100406.37
2019-03-30T10:31:52.134Z,100399.56
2019-03-30T10:34:19.573Z,100401.62
2019-03-30T10:36:47.386Z,100405.66
2019-03-30T10:39:17.905Z,100400.25
2019-03-30T10:41:45.508Z,100398.77
2019-03-30T10:44:13.227Z,100401.86
2019-03-30T10:46:40.726Z,100398.76
2019-03-30T10:49:11.265Z,100390.41
2019-03-30T10:51:41.776Z,100391.47
2019-03-30T10:54:09.315Z,100389.36
2019-03-30T10:56:37.936Z,100389.36
2019-03-30T10:59:05.663Z,100379.02
2019-03-30T11:01:33.221Z,100377.14
2019-03-30T11:04:00.830Z,100378.77
2019-03-30T11:06:28.653Z,100378.12
2019-03-30T11:08:58.997Z,100381.15
2019-03-30T11:11:26.588Z,100381.15
2019-03-30T11:13:54.349Z,100382.56
2019-03-30T11:16:21.935Z,100393.60
2019-03-30T11:18:50.400Z,100381.32
2019-03-30T11:21:18.243Z,100380.13
2019-03-30T11:23:45.853Z,100373.39
2019-03-30T11:26:13.458Z,100370.66
2019-03-30T11:28:41.346Z,100364.77
2019-03-30T11:31:09.237Z,100376.77
2019-03-30T11:33:40.231Z,100384.65
2019-03-30T11:36:08.030Z,100383.03
2019-03-30T11:38:35.649Z,100372.33
2019-03-30T11:41:03.472Z,100383.63
2019-03-30T11:43:34.183Z,100368.30
2019-03-30T11:46:01.792Z,100368.30
2019-03-30T11:48:29.342Z,100372.13
2019-03-30T11:51:00.100Z,100365.06
2019-03-30T11:53:29.614Z,100360.83
2019-03-30T11:55:57.134Z,100365.91
2019-03-30T11:58:26.542Z,100362.52
2019-03-30T12:00:54.150Z,100365.39
2019-03-30T12:03:21.679Z,100354.00
2019-03-30T12:05:50.495Z,100349.89
2019-03-30T12:08:18.126Z,100348.52
2019-03-30T12:10:47.380Z,100358.93
2019-03-30T12:13:15.271Z,100346.16
2019-03-30T12:15:45.224Z,100343.52
2019-03-30T12:18:14.844Z,100341.14
2019-03-30T12:20:42.710Z,100345.70
2019-03-30T12:23:11.894Z,100345.70
2019-03-30T12:25:39.476Z,100338.70
2019-03-30T12:28:07.277Z,100343.34
2019-03-30T12:30:34.819Z,100325.76
2019-03-30T12:33:02.375Z,100327.78
2019-03-30T12:35:29.897Z,100328.47
2019-03-30T12:37:59.128Z,100319.87
2019-03-30T12:40:27.115Z,100309.94
2019-03-30T12:42:54.591Z,100305.53
2019-03-30T12:45:22.244Z,100305.20
2019-03-30T12:47:52.149Z,100295.78
2019-03-30T12:50:19.773Z,100293.49
2019-03-30T12:52:47.326Z,100289.84
2019-03-30T12:55:15.196Z,100289.84
2019-03-30T12:57:42.678Z,100296.16
2019-03-30T13:00:10.305Z,100309.45
2019-03-30T13:02:39.301Z,100301.89
2019-03-30T13:05:07.535Z,100301.28
2019-03-30T13:07:35.251Z,100296.48
2019-03-30T13:10:03.089Z,100293.60
2019-03-30T13:12:30.676Z,100289.55
2019-03-30T13:15:00.103Z,100295.72
2019-03-30T13:17:29.138Z,100294.73
2019-03-30T13:19:56.796Z,100301.42
2019-03-30T13:22:24.323Z,100292.64
2019-03-30T13:24:55.080Z,100282.06
2019-03-30T13:27:22.675Z,100289.02
2019-03-30T13:29:50.169Z,100291.48
2019-03-30T13:32:18.008Z,100283.38
2019-03-30T13:34:45.597Z,100280.23
2019-03-30T13:37:13.077Z,100284.06
2019-03-30T13:39:40.989Z,100287.64
2019-03-30T13:42:08.533Z,100287.64
2019-03-30T13:44:37.491Z,100290.97
2019-03-30T13:47:08.053Z,100283.10
2019-03-30T13:49:35.664Z,100280.64
2019-03-30T13:52:03.278Z,100283.93
2019-03-30T13:54:31.086Z,100280.47
2019-03-30T13:56:58.776Z,100274.15
2019-03-30T13:59:26.380Z,100271.20
2019-03-30T14:01:54.252Z,100262.91
2019-03-30T14:04:21.883Z,100269.00
2019-03-30T14:06:49.438Z,100269.00
2019-03-30T14:09:17.224Z,100254.61
2019-03-30T14:11:44.739Z,100262.25
2019-03-30T14:14:12.324Z,100266.19
2019-03-30T14:16:40.098Z,100263.25
2019-03-30T14:19:08.127Z,100262.42
2019-03-30T14:21:37.630Z,100256.80
2019-03-30T14:24:10.867Z,100257.83
2019-03-30T14:26:38.449Z,100255.56
2019-03-30T14:29:09.319Z,100262.56
2019-03-30T14:31:39.298Z,100261.46
2019-03-30T14:34:06.921Z,100261.46
2019-03-30T14:36:34.568Z,100264.77
2019-03-30T14:39:02.451Z,100251.69
2019-03-30T14:41:31.293Z,100248.81
2019-03-30T14:43:58.812Z,100248.81
2019-03-30T14:46:26.703Z,100252.09
2019-03-30T14:48:54.217Z,100241.81
2019-03-30T14:51:21.717Z,100244.44
2019-03-30T14:53:49.573Z,100241.07
2019-03-30T14:56:17.110Z,100241.70
2019-03-30T14:58:44.749Z,100233.23
2019-03-30T15:01:12.722Z,100240.62
2019-03-30T15:03:40.337Z,100235.63
2019-03-30T15:06:12.128Z,100235.63
2019-03-30T15:08:39.902Z,100239.18
2019-03-30T15:11:07.431Z,100239.95
2019-03-30T15:13:34.937Z,100238.17
2019-03-30T15:16:06.944Z,100234.41
2019-03-30T15:18:46.128Z,100234.06
2019-03-30T15:21:13.893Z,100239.23
2019-03-30T15:23:43.582Z,100241.21
2019-03-30T15:26:11.256Z,100235.36
2019-03-30T15:28:38.774Z,100241.66
2019-03-30T15:31:06.656Z,100234.10
2019-03-30T15:33:37.010Z,100225.91
2019-03-30T15:36:04.927Z,100228.32
2019-03-30T15:38:32.487Z,100228.44
2019-03-30T15:41:00.328Z,100226.96
2019-03-30T15:43:37.973Z,100228.19
2019-03-30T15:45:57.853Z,100228.50
2019-03-30T15:48:28.166Z,100230.71
2019-03-30T15:50:54.880Z,100231.50
2019-03-30T15:53:22.414Z,100225.58
2019-03-30T15:55:53.003Z,100224.57
2019-03-30T15:58:20.556Z,100222.96
2019-03-30T16:00:51.104Z,100222.96
2019-03-30T16:03:18.829Z,100232.48
2019-03-30T16:05:46.422Z,100228.98
2019-03-30T16:08:14.080Z,100225.22
2019-03-30T16:10:41.924Z,100233.69
2019-03-30T16:13:16.591Z,100238.47
2019-03-30T16:15:44.667Z,100238.47
2019-03-30T16:18:19.641Z,100240.80
2019-03-30T16:20:47.196Z,100245.34
2019-03-30T16:23:14.781Z,100246.39
2019-03-30T16:25:45.099Z,100246.72
2019-03-30T16:28:14.449Z,100246.72
2019-03-30T16:30:42.057Z,100245.28
2019-03-30T16:33:09.883Z,100247.02
2019-03-30T16:35:37.467Z,100252.94
2019-03-30T16:38:05.042Z,100256.68
2019-03-30T16:40:32.833Z,100249.88
2019-03-30T16:43:08.530Z,100248.53
2019-03-30T16:45:32.175Z,100248.53
2019-03-30T16:47:59.988Z,100252.24
2019-03-30T16:50:32.265Z,100248.83
2019-03-30T16:53:01.979Z,100246.47
2019-03-30T16:55:32.568Z,100244.58
2019-03-30T16:58:00.184Z,100246.92
2019-03-30T17:00:35.076Z,100248.77
2019-03-30T17:03:06.041Z,100242.98
2019-03-30T17:05:33.923Z,100246.30
2019-03-30T17:08:01.600Z,100240.02
2019-03-30T17:10:29.509Z,100245.23
2019-03-30T17:12:57.039Z,100245.01
2019-03-30T17:15:28.164Z,100246.31
2019-03-30T17:17:59.166Z,100251.29
2019-03-30T17:20:34.044Z,100249.08
2019-03-30T17:23:01.602Z,100250.03
2019-03-30T17:25:32.559Z,100248.27
2019-03-30T17:28:10.716Z,100249.07
2019-03-30T17:30:38.601Z,100253.36
2019-03-30T17:33:06.236Z,100252.78
2019-03-30T17:35:33.928Z,100254.06
2019-03-30T17:38:01.378Z,100259.05
2019-03-30T17:40:28.892Z,100251.78
2019-03-30T17:42:56.642Z,100251.78
2019-03-30T17:45:27.053Z,100258.30
2019-03-30T17:47:54.611Z,100256.02
2019-03-30T17:50:22.484Z,100254.93
2019-03-30T17:52:50.196Z,100252.14
2019-03-30T17:55:17.670Z,100256.37
2019-03-30T17:57:45.733Z,100258.22
2019-03-30T18:00:18.356Z,100263.64
2019-03-30T18:02:48.797Z,100268.06
2019-03-30T18:05:16.873Z,100266.12
2019-03-30T18:07:44.444Z,100263.52
2019-03-30T18:10:12.139Z,100267.40
2019-03-30T18:12:40.041Z,100267.40
2019-03-30T18:15:07.645Z,100270.98
2019-03-30T18:17:35.247Z,100273.38
2019-03-30T18:20:04.504Z,100273.38
2019-03-30T18:22:35.185Z,100283.35
2019-03-30T18:25:05.823Z,100279.28
2019-03-30T18:27:36.613Z,100280.07
2019-03-30T18:30:07.053Z,100281.20
2019-03-30T18:32:39.835Z,100284.67
2019-03-30T18:35:07.720Z,100287.01
2019-03-30T18:37:35.291Z,100293.89
2019-03-30T18:40:02.835Z,100293.89
2019-03-30T18:42:30.636Z,100301.49
2019-03-30T18:44:59.787Z,100301.49
2019-03-30T18:47:27.299Z,100307.80
2019-03-30T18:49:55.207Z,100312.73
2019-03-30T18:52:22.883Z,100316.84
2019-03-30T18:54:50.434Z,100324.80
2019-03-30T18:57:18.285Z,100320.85
2019-03-30T18:59:50.806Z,100325.63
2019-03-30T19:02:19.318Z,100325.63
2019-03-30T19:04:47.317Z,100325.48
2019-03-30T19:07:17.701Z,100319.49
2019-03-30T19:09:44.236Z,100319.17
2019-03-30T19:12:12.090Z,100321.23
2019-03-30T19:14:39.688Z,100320.43
2019-03-30T19:17:07.229Z,100319.76
2019-03-30T19:19:35.041Z,100320.94
2019-03-30T19:22:02.629Z,100321.06
2019-03-30T19:24:31.786Z,100323.02
2019-03-30T19:27:00.532Z,100329.36
2019-03-30T19:29:28.141Z,100322.68
2019-03-30T19:31:55.615Z,100322.68
2019-03-30T19:34:23.434Z,100333.80
2019-03-30T19:36:53.980Z,100331.22
2019-03-30T19:39:21.616Z,100331.22
2019-03-30T19:41:50.502Z,100331.16
2019-03-30T19:44:18.043Z,100334.11
2019-03-30T19:46:49.120Z,100337.61
2019-03-30T19:49:16.923Z,100343.27
2019-03-30T19:51:44.540Z,100344.55
2019-03-30T19:54:12.140Z,100344.55
2019-03-30T19:56:40.000Z,100341.55
2019-03-30T19:59:11.384Z,100347.05
2019-03-30T20:01:40.917Z,100341.00
2019-03-30T20:04:08.759Z,100341.00
2019-03-30T20:06:37.442Z,100351.61
2019-03-30T20:09:07.398Z,100351.61
2019-03-30T20:11:35.345Z,100346.64
2019-03-30T20:14:03.000Z,100346.17
2019-03-30T20:16:35.124Z,100352.77
2019-03-30T20:19:11.590Z,100349.61
2019-03-30T20:21:32.196Z,100349.61
2019-03-30T20:23:59.801Z,100351.91
2019-03-30T20:26:28.662Z,100356.39
2019-03-30T20:28:56.230Z,100354.92
2019-03-30T20:31:23.789Z,100354.92
2019-03-30T20:33:51.709Z,100352.61
2019-03-30T20:36:19.270Z,100352.25
2019-03-30T20:38:49.853Z,100355.67
2019-03-30T20:41:17.734Z,100355.67
2019-03-30T20:43:45.364Z,100356.14
2019-03-30T20:46:18.811Z,100356.14
2019-03-30T20:48:46.599Z,100363.03
2019-03-30T20:51:14.089Z,100363.03
2019-03-30T20:53:41.724Z,100352.11
2019-03-30T20:56:10.412Z,100358.05
2019-03-30T20:58:43.461Z,100351.45
2019-03-30T21:01:11.013Z,100365.61
2019-03-30T21:03:38.818Z,100365.61
2019-03-30T21:06:06.437Z,100368.48
2019-03-30T21:08:33.981Z,100369.29
2019-03-30T21:11:04.048Z,100364.98
2019-03-30T21:13:31.620Z,100364.98
2019-03-30T21:15:59.114Z,100370.09
2019-03-30T21:18:27.013Z,100370.09
2019-03-30T21:20:54.616Z,100368.20
2019-03-30T21:23:22.178Z,100368.20
2019-03-30T21:25:59.329Z,100369.88
2019-03-30T21:28:26.831Z,100369.88
2019-03-30T21:30:54.445Z,100367.66
2019-03-30T21:33:22.296Z,100367.66
2019-03-30T21:35:58.340Z,100369.55
2019-03-30T21:38:27.042Z,100370.89
2019-03-30T21:40:54.590Z,100368.56
2019-03-30T21:43:22.044Z,100367.00
2019-03-30T21:45:50.587Z,100371.56
2019-03-30T21:48:18.161Z,100368.53
2019-03-30T21:50:45.922Z,100368.53
2019-03-30T21:53:15.815Z,100365.87
2019-03-30T21:55:45.880Z,100365.41
2019-03-30T21:58:13.436Z,100367.80
2019-03-30T22:00:41.328Z,100366.44
2019-03-30T22:03:08.889Z,100366.44
2019-03-30T22:05:36.441Z,100367.84
2019-03-30T22:08:04.318Z,100367.84
2019-03-30T22:10:34.131Z,100375.25
2019-03-30T22:13:01.785Z,100374.35
2019-03-30T22:15:29.524Z,100373.25
2019-03-30T22:17:57.041Z,100373.25
2019-03-30T22:20:24.524Z,100371.69
2019-03-30T22:22:52.404Z,100371.69
2019-03-30T22:25:19.938Z,100371.06
2019-03-30T22:27:49.474Z,100371.06
2019-03-30T22:30:24.700Z,100365.97
2019-03-30T22:32:46.568Z,100364.86
2019-03-30T22:35:15.740Z,100364.86
2019-03-30T22:37:43.545Z,100364.72
2019-03-30T22:40:11.162Z,100364.81
2019-03-30T22:42:38.713Z,100366.75
2019-03-30T22:45:06.522Z,100367.07
2019-03-30T22:47:35.413Z,100366.80
2019-03-30T22:50:08.993Z,100369.36
2019-03-30T22:52:37.877Z,100369.36
2019-03-30T22:55:05.443Z,100373.98
2019-03-30T22:57:34.024Z,100366.32
2019-03-30T23:00:01.744Z,100366.32
2019-03-30T23:02:29.368Z,100363.34
2019-03-30T23:04:58.876Z,100353.92
2019-03-30T23:07:26.414Z,100353.92
2019-03-30T23:09:53.865Z,100351.83
2019-03-30T23:12:21.406Z,100351.52
2019-03-30T23:14:49.224Z,100360.58
2019-03-30T23:17:16.833Z,100368.01
2019-03-30T23:19:44.362Z,100373.23
2019-03-30T23:22:15.282Z,100371.25
2019-03-30T23:24:42.801Z,100371.84
2019-03-30T23:27:13.459Z,100371.84
2019-03-30T23:29:41.254Z,100375.28
2019-03-30T23:32:08.754Z,100375.09
2019-03-30T23:34:36.363Z,100368.09
2019-03-30T23:37:04.237Z,100361.08
2019-03-30T23:39:34.791Z,100361.08
2019-03-30T23:42:04.017Z,100360.80
2019-03-30T23:44:34.400Z,100360.80
2019-03-30T23:47:02.173Z,100359.69
2019-03-30T23:49:29.656Z,100366.42
2019-03-30T23:51:57.506Z,100357.34
2019-03-30T23:54:25.528Z,100360.38
2019-03-30T23:56:53.119Z,100363.86
2019-03-30T23:59:23.698Z,100363.86
